sensor_id;sensor_type;location;lat;lon;timestamp;P1;durP1;ratioP1;P2;durP2;ratioP2
21501;SDS011;27639;48.674;9.242;2022-11-15T00:02:06;12.90;;;9.48;;
21501;SDS011;27639;48.674;9.242;2022-11-15T00:04:31;11.73;;;8.80;;
21501;SDS011;27639;48.674;9.242;2022-11-15T00:06:57;11.48;;;8.57;;
21501;SDS011;27639;48.674;9.242;2022-11-15T00:09:22;11.57;;;8.68;;
21501;SDS011;27639;48.674;9.242;2022-11-15T00:11:48;10.95;;;8.73;;
21501;SDS011;27639;48.674;9.242;2022-11-15T00:14:13;10.85;;;7.93;;
21501;SDS011;27639;48.674;9.242;2022-11-15T00:16:39;10.02;;;7.60;;
21501;SDS011;27639;48.674;9.242;2022-11-15T00:19:05;11.38;;;7.82;;
21501;SDS011;27639;48.674;9.242;2022-11-15T00:21:30;10.70;;;8.18;;
21501;SDS011;27639;48.674;9.242;2022-11-15T00:23:56;11.02;;;7.38;;
21501;SDS011;27639;48.674;9.242;2022-11-15T00:26:21;11.18;;;7.10;;
21501;SDS011;27639;48.674;9.242;2022-11-15T00:28:47;9.40;;;7.07;;
21501;SDS011;27639;48.674;9.242;2022-11-15T00:31:13;10.23;;;6.75;;
21501;SDS011;27639;48.674;9.242;2022-11-15T00:33:39;11.00;;;8.05;;
21501;SDS011;27639;48.674;9.242;2022-11-15T00:36:08;9.35;;;6.60;;
21501;SDS011;27639;48.674;9.242;2022-11-15T00:38:36;10.40;;;8.15;;
21501;SDS011;27639;48.674;9.242;2022-11-15T00:41:03;9.25;;;7.13;;
21501;SDS011;27639;48.674;9.242;2022-11-15T00:43:30;13.02;;;9.20;;
21501;SDS011;27639;48.674;9.242;2022-11-15T00:45:56;10.65;;;8.45;;
21501;SDS011;27639;48.674;9.242;2022-11-15T00:48:22;12.43;;;9.00;;
21501;SDS011;27639;48.674;9.242;2022-11-15T00:50:48;11.13;;;7.93;;
21501;SDS011;27639;48.674;9.242;2022-11-15T00:53:14;14.38;;;8.07;;
21501;SDS011;27639;48.674;9.242;2022-11-15T00:55:40;12.00;;;8.13;;
21501;SDS011;27639;48.674;9.242;2022-11-15T00:58:06;11.57;;;8.27;;
21501;SDS011;27639;48.674;9.242;2022-11-15T01:00:31;11.75;;;7.88;;
21501;SDS011;27639;48.674;9.242;2022-11-15T01:02:57;11.48;;;8.27;;
21501;SDS011;27639;48.674;9.242;2022-11-15T01:05:22;10.25;;;8.27;;
21501;SDS011;27639;48.674;9.242;2022-11-15T01:07:52;13.65;;;7.95;;
21501;SDS011;27639;48.674;9.242;2022-11-15T01:10:21;10.20;;;7.13;;
21501;SDS011;27639;48.674;9.242;2022-11-15T01:12:49;10.85;;;7.05;;
21501;SDS011;27639;48.674;9.242;2022-11-15T01:15:15;9.63;;;7.07;;
21501;SDS011;27639;48.674;9.242;2022-11-15T01:17:40;10.35;;;7.13;;
21501;SDS011;27639;48.674;9.242;2022-11-15T01:20:06;9.38;;;6.85;;
21501;SDS011;27639;48.674;9.242;2022-11-15T01:22:32;11.27;;;6.90;;
21501;SDS011;27639;48.674;9.242;2022-11-15T01:24:58;9.70;;;6.88;;
21501;SDS011;27639;48.674;9.242;2022-11-15T01:27:24;8.75;;;6.25;;
21501;SDS011;27639;48.674;9.242;2022-11-15T01:29:49;9.60;;;6.63;;
21501;SDS011;27639;48.674;9.242;2022-11-15T01:32:15;9.90;;;6.78;;
21501;SDS011;27639;48.674;9.242;2022-11-15T01:34:41;9.75;;;6.53;;
21501;SDS011;27639;48.674;9.242;2022-11-15T01:37:06;8.77;;;6.43;;
21501;SDS011;27639;48.674;9.242;2022-11-15T01:39:32;9.60;;;6.78;;
21501;SDS011;27639;48.674;9.242;2022-11-15T01:41:57;8.18;;;5.80;;
21501;SDS011;27639;48.674;9.242;2022-11-15T01:49:54;8.82;;;6.47;;
21501;SDS011;27639;48.674;9.242;2022-11-15T01:52:28;10.05;;;6.38;;
21501;SDS011;27639;48.674;9.242;2022-11-15T01:55:02;9.45;;;6.10;;
21501;SDS011;27639;48.674;9.242;2022-11-15T01:57:32;8.30;;;6.00;;
21501;SDS011;27639;48.674;9.242;2022-11-15T01:59:59;9.15;;;6.25;;
21501;SDS011;27639;48.674;9.242;2022-11-15T02:02:26;7.88;;;5.90;;
21501;SDS011;27639;48.674;9.242;2022-11-15T02:04:51;8.07;;;5.70;;
21501;SDS011;27639;48.674;9.242;2022-11-15T02:07:18;7.47;;;5.28;;
21501;SDS011;27639;48.674;9.242;2022-11-15T02:09:46;8.07;;;5.18;;
21501;SDS011;27639;48.674;9.242;2022-11-15T02:12:13;8.40;;;5.40;;
21501;SDS011;27639;48.674;9.242;2022-11-15T02:14:44;8.82;;;5.10;;
21501;SDS011;27639;48.674;9.242;2022-11-15T02:22:37;9.57;;;4.57;;
21501;SDS011;27639;48.674;9.242;2022-11-15T02:25:25;8.53;;;4.77;;
21501;SDS011;27639;48.674;9.242;2022-11-15T02:39:35;5.63;;;3.97;;
21501;SDS011;27639;48.674;9.242;2022-11-15T02:42:08;5.20;;;3.90;;
21501;SDS011;27639;48.674;9.242;2022-11-15T02:44:59;7.30;;;4.38;;
21501;SDS011;27639;48.674;9.242;2022-11-15T02:47:33;7.60;;;4.00;;
21501;SDS011;27639;48.674;9.242;2022-11-15T02:50:06;6.18;;;4.50;;
21501;SDS011;27639;48.674;9.242;2022-11-15T02:52:34;5.85;;;4.70;;
21501;SDS011;27639;48.674;9.242;2022-11-15T02:55:00;5.18;;;4.05;;
21501;SDS011;27639;48.674;9.242;2022-11-15T02:57:31;5.97;;;4.13;;
21501;SDS011;27639;48.674;9.242;2022-11-15T03:00:01;7.18;;;4.60;;
21501;SDS011;27639;48.674;9.242;2022-11-15T03:05:45;5.72;;;3.95;;
21501;SDS011;27639;48.674;9.242;2022-11-15T03:08:22;6.63;;;3.92;;
21501;SDS011;27639;48.674;9.242;2022-11-15T03:16:16;6.68;;;4.00;;
21501;SDS011;27639;48.674;9.242;2022-11-15T03:18:55;6.78;;;3.83;;
21501;SDS011;27639;48.674;9.242;2022-11-15T03:21:30;8.50;;;4.05;;
21501;SDS011;27639;48.674;9.242;2022-11-15T03:23:59;7.38;;;3.72;;
21501;SDS011;27639;48.674;9.242;2022-11-15T03:26:28;5.97;;;3.50;;
21501;SDS011;27639;48.674;9.242;2022-11-15T03:28:56;5.88;;;3.67;;
21501;SDS011;27639;48.674;9.242;2022-11-15T03:31:28;6.38;;;3.53;;
21501;SDS011;27639;48.674;9.242;2022-11-15T03:34:32;5.18;;;3.50;;
21501;SDS011;27639;48.674;9.242;2022-11-15T03:37:08;4.85;;;3.22;;
21501;SDS011;27639;48.674;9.242;2022-11-15T03:39:37;5.70;;;3.80;;
21501;SDS011;27639;48.674;9.242;2022-11-15T03:47:18;6.55;;;3.95;;
21501;SDS011;27639;48.674;9.242;2022-11-15T03:49:53;8.48;;;4.32;;
21501;SDS011;27639;48.674;9.242;2022-11-15T03:52:23;7.18;;;4.53;;
21501;SDS011;27639;48.674;9.242;2022-11-15T03:54:53;9.18;;;5.03;;
21501;SDS011;27639;48.674;9.242;2022-11-15T03:57:20;9.25;;;5.03;;
21501;SDS011;27639;48.674;9.242;2022-11-15T03:59:45;9.00;;;5.20;;
21501;SDS011;27639;48.674;9.242;2022-11-15T04:02:11;9.10;;;4.95;;
21501;SDS011;27639;48.674;9.242;2022-11-15T04:04:37;7.18;;;4.72;;
21501;SDS011;27639;48.674;9.242;2022-11-15T04:07:03;7.38;;;4.53;;
21501;SDS011;27639;48.674;9.242;2022-11-15T04:09:28;6.80;;;4.60;;
21501;SDS011;27639;48.674;9.242;2022-11-15T04:11:54;8.77;;;4.10;;
21501;SDS011;27639;48.674;9.242;2022-11-15T04:14:20;7.03;;;4.18;;
21501;SDS011;27639;48.674;9.242;2022-11-15T04:16:45;7.18;;;4.13;;
21501;SDS011;27639;48.674;9.242;2022-11-15T04:19:11;6.30;;;4.32;;
21501;SDS011;27639;48.674;9.242;2022-11-15T04:21:55;7.68;;;4.15;;
21501;SDS011;27639;48.674;9.242;2022-11-15T04:24:39;6.22;;;4.00;;
21501;SDS011;27639;48.674;9.242;2022-11-15T04:27:05;6.45;;;3.90;;
21501;SDS011;27639;48.674;9.242;2022-11-15T04:29:31;6.70;;;4.10;;
21501;SDS011;27639;48.674;9.242;2022-11-15T04:32:00;6.10;;;3.70;;
21501;SDS011;27639;48.674;9.242;2022-11-15T04:34:30;6.95;;;3.80;;
21501;SDS011;27639;48.674;9.242;2022-11-15T04:36:55;7.40;;;3.90;;
21501;SDS011;27639;48.674;9.242;2022-11-15T04:39:36;8.70;;;4.32;;
21501;SDS011;27639;48.674;9.242;2022-11-15T04:42:02;8.82;;;5.32;;
21501;SDS011;27639;48.674;9.242;2022-11-15T04:44:28;8.90;;;5.35;;
21501;SDS011;27639;48.674;9.242;2022-11-15T04:46:53;10.05;;;6.80;;
21501;SDS011;27639;48.674;9.242;2022-11-15T04:49:19;11.65;;;6.55;;
21501;SDS011;27639;48.674;9.242;2022-11-15T04:51:44;9.00;;;6.03;;
21501;SDS011;27639;48.674;9.242;2022-11-15T04:54:10;10.52;;;6.55;;
21501;SDS011;27639;48.674;9.242;2022-11-15T04:56:35;9.50;;;5.85;;
21501;SDS011;27639;48.674;9.242;2022-11-15T04:59:01;8.05;;;5.40;;
21501;SDS011;27639;48.674;9.242;2022-11-15T05:01:27;8.63;;;5.40;;
21501;SDS011;27639;48.674;9.242;2022-11-15T05:03:52;8.70;;;5.40;;
21501;SDS011;27639;48.674;9.242;2022-11-15T05:06:36;8.48;;;5.57;;
21501;SDS011;27639;48.674;9.242;2022-11-15T05:09:02;9.85;;;6.75;;
21501;SDS011;27639;48.674;9.242;2022-11-15T05:11:28;11.00;;;6.25;;
21501;SDS011;27639;48.674;9.242;2022-11-15T05:13:53;12.07;;;8.02;;
21501;SDS011;27639;48.674;9.242;2022-11-15T05:16:19;13.75;;;7.93;;
21501;SDS011;27639;48.674;9.242;2022-11-15T05:18:45;11.15;;;7.20;;
21501;SDS011;27639;48.674;9.242;2022-11-15T05:21:12;7.85;;;5.68;;
21501;SDS011;27639;48.674;9.242;2022-11-15T05:23:40;9.45;;;5.85;;
21501;SDS011;27639;48.674;9.242;2022-11-15T05:26:06;9.20;;;5.60;;
21501;SDS011;27639;48.674;9.242;2022-11-15T05:28:32;7.20;;;5.05;;
21501;SDS011;27639;48.674;9.242;2022-11-15T05:31:05;7.00;;;4.57;;
21501;SDS011;27639;48.674;9.242;2022-11-15T05:33:37;6.63;;;4.57;;
21501;SDS011;27639;48.674;9.242;2022-11-15T05:36:09;7.00;;;4.65;;
21501;SDS011;27639;48.674;9.242;2022-11-15T05:38:37;10.00;;;5.70;;
21501;SDS011;27639;48.674;9.242;2022-11-15T05:41:03;8.77;;;5.22;;
21501;SDS011;27639;48.674;9.242;2022-11-15T05:43:30;8.95;;;5.45;;
21501;SDS011;27639;48.674;9.242;2022-11-15T05:45:58;8.63;;;5.32;;
21501;SDS011;27639;48.674;9.242;2022-11-15T05:48:25;8.75;;;5.47;;
21501;SDS011;27639;48.674;9.242;2022-11-15T05:50:51;9.75;;;5.68;;
21501;SDS011;27639;48.674;9.242;2022-11-15T05:53:17;8.35;;;5.50;;
21501;SDS011;27639;48.674;9.242;2022-11-15T05:55:44;8.32;;;5.50;;
21501;SDS011;27639;48.674;9.242;2022-11-15T05:58:10;10.48;;;6.10;;
21501;SDS011;27639;48.674;9.242;2022-11-15T06:00:36;11.00;;;6.30;;
21501;SDS011;27639;48.674;9.242;2022-11-15T06:03:02;9.25;;;5.85;;
21501;SDS011;27639;48.674;9.242;2022-11-15T06:05:27;7.90;;;6.10;;
21501;SDS011;27639;48.674;9.242;2022-11-15T06:07:56;9.75;;;6.32;;
21501;SDS011;27639;48.674;9.242;2022-11-15T06:10:23;10.13;;;5.63;;
21501;SDS011;27639;48.674;9.242;2022-11-15T06:12:56;9.73;;;6.53;;
21501;SDS011;27639;48.674;9.242;2022-11-15T06:15:25;10.50;;;6.28;;
21501;SDS011;27639;48.674;9.242;2022-11-15T06:17:51;11.93;;;7.60;;
21501;SDS011;27639;48.674;9.242;2022-11-15T06:20:17;10.35;;;7.22;;
21501;SDS011;27639;48.674;9.242;2022-11-15T06:22:43;9.93;;;6.78;;
21501;SDS011;27639;48.674;9.242;2022-11-15T06:25:08;10.02;;;7.03;;
21501;SDS011;27639;48.674;9.242;2022-11-15T06:27:34;9.60;;;7.03;;
21501;SDS011;27639;48.674;9.242;2022-11-15T06:29:59;11.80;;;7.82;;
21501;SDS011;27639;48.674;9.242;2022-11-15T06:32:25;10.25;;;7.70;;
21501;SDS011;27639;48.674;9.242;2022-11-15T06:34:51;12.70;;;8.43;;
21501;SDS011;27639;48.674;9.242;2022-11-15T06:37:16;9.40;;;7.50;;
21501;SDS011;27639;48.674;9.242;2022-11-15T06:39:42;11.02;;;7.88;;
21501;SDS011;27639;48.674;9.242;2022-11-15T06:42:07;11.30;;;7.82;;
21501;SDS011;27639;48.674;9.242;2022-11-15T06:44:33;11.20;;;8.43;;
21501;SDS011;27639;48.674;9.242;2022-11-15T06:46:59;10.13;;;7.97;;
21501;SDS011;27639;48.674;9.242;2022-11-15T06:49:25;12.27;;;8.50;;
21501;SDS011;27639;48.674;9.242;2022-11-15T06:51:50;12.25;;;8.65;;
21501;SDS011;27639;48.674;9.242;2022-11-15T06:54:16;12.32;;;9.02;;
21501;SDS011;27639;48.674;9.242;2022-11-15T06:56:41;13.45;;;9.40;;
21501;SDS011;27639;48.674;9.242;2022-11-15T06:59:07;12.90;;;9.02;;
21501;SDS011;27639;48.674;9.242;2022-11-15T07:01:33;11.75;;;9.07;;
21501;SDS011;27639;48.674;9.242;2022-11-15T07:03:58;13.52;;;9.13;;
21501;SDS011;27639;48.674;9.242;2022-11-15T07:06:24;13.73;;;9.00;;
21501;SDS011;27639;48.674;9.242;2022-11-15T07:08:49;12.57;;;8.38;;
21501;SDS011;27639;48.674;9.242;2022-11-15T07:11:15;10.77;;;8.45;;
21501;SDS011;27639;48.674;9.242;2022-11-15T07:13:40;10.43;;;8.23;;
21501;SDS011;27639;48.674;9.242;2022-11-15T07:16:07;12.23;;;8.25;;
21501;SDS011;27639;48.674;9.242;2022-11-15T07:18:34;13.85;;;9.93;;
21501;SDS011;27639;48.674;9.242;2022-11-15T07:21:04;12.85;;;8.48;;
21501;SDS011;27639;48.674;9.242;2022-11-15T07:23:32;12.00;;;7.15;;
21501;SDS011;27639;48.674;9.242;2022-11-15T07:25:58;10.63;;;6.97;;
21501;SDS011;27639;48.674;9.242;2022-11-15T07:28:24;10.77;;;6.70;;
21501;SDS011;27639;48.674;9.242;2022-11-15T07:30:50;10.35;;;6.88;;
21501;SDS011;27639;48.674;9.242;2022-11-15T07:33:16;7.97;;;5.90;;
21501;SDS011;27639;48.674;9.242;2022-11-15T07:35:41;9.80;;;7.55;;
21501;SDS011;27639;48.674;9.242;2022-11-15T07:38:08;9.90;;;7.10;;
21501;SDS011;27639;48.674;9.242;2022-11-15T07:40:33;8.27;;;6.38;;
21501;SDS011;27639;48.674;9.242;2022-11-15T07:42:59;8.75;;;6.28;;
21501;SDS011;27639;48.674;9.242;2022-11-15T07:45:26;11.02;;;6.90;;
21501;SDS011;27639;48.674;9.242;2022-11-15T07:47:52;10.00;;;7.30;;
21501;SDS011;27639;48.674;9.242;2022-11-15T07:50:18;11.70;;;8.88;;
21501;SDS011;27639;48.674;9.242;2022-11-15T07:52:44;14.95;;;10.77;;
21501;SDS011;27639;48.674;9.242;2022-11-15T07:55:10;16.60;;;10.82;;
21501;SDS011;27639;48.674;9.242;2022-11-15T07:57:36;13.73;;;10.15;;
21501;SDS011;27639;48.674;9.242;2022-11-15T08:00:05;11.77;;;9.30;;
21501;SDS011;27639;48.674;9.242;2022-11-15T08:02:31;8.00;;;6.20;;
21501;SDS011;27639;48.674;9.242;2022-11-15T08:04:57;7.93;;;5.10;;
21501;SDS011;27639;48.674;9.242;2022-11-15T08:07:24;12.05;;;5.43;;
21501;SDS011;27639;48.674;9.242;2022-11-15T08:09:49;10.32;;;6.20;;
21501;SDS011;27639;48.674;9.242;2022-11-15T08:12:15;10.70;;;6.85;;
21501;SDS011;27639;48.674;9.242;2022-11-15T08:14:40;11.57;;;6.63;;
21501;SDS011;27639;48.674;9.242;2022-11-15T08:17:06;9.45;;;6.28;;
21501;SDS011;27639;48.674;9.242;2022-11-15T08:19:31;9.38;;;6.30;;
21501;SDS011;27639;48.674;9.242;2022-11-15T08:21:57;13.60;;;6.90;;
21501;SDS011;27639;48.674;9.242;2022-11-15T08:24:22;12.10;;;7.00;;
21501;SDS011;27639;48.674;9.242;2022-11-15T08:26:48;11.40;;;6.88;;
21501;SDS011;27639;48.674;9.242;2022-11-15T08:29:13;13.38;;;7.05;;
21501;SDS011;27639;48.674;9.242;2022-11-15T08:31:39;16.73;;;9.13;;
21501;SDS011;27639;48.674;9.242;2022-11-15T08:34:05;15.18;;;9.45;;
21501;SDS011;27639;48.674;9.242;2022-11-15T08:36:31;12.50;;;9.07;;
21501;SDS011;27639;48.674;9.242;2022-11-15T08:38:57;19.38;;;14.93;;
21501;SDS011;27639;48.674;9.242;2022-11-15T08:41:32;17.17;;;11.98;;
21501;SDS011;27639;48.674;9.242;2022-11-15T08:44:00;19.50;;;16.23;;
21501;SDS011;27639;48.674;9.242;2022-11-15T08:46:26;19.80;;;15.07;;
21501;SDS011;27639;48.674;9.242;2022-11-15T08:48:52;22.60;;;17.77;;
21501;SDS011;27639;48.674;9.242;2022-11-15T08:51:18;25.50;;;16.65;;
21501;SDS011;27639;48.674;9.242;2022-11-15T08:53:43;19.85;;;15.65;;
21501;SDS011;27639;48.674;9.242;2022-11-15T08:56:10;16.75;;;12.60;;
21501;SDS011;27639;48.674;9.242;2022-11-15T08:58:37;11.82;;;9.73;;
21501;SDS011;27639;48.674;9.242;2022-11-15T09:01:03;15.48;;;10.18;;
21501;SDS011;27639;48.674;9.242;2022-11-15T09:03:29;12.63;;;9.60;;
21501;SDS011;27639;48.674;9.242;2022-11-15T09:05:56;11.13;;;8.57;;
21501;SDS011;27639;48.674;9.242;2022-11-15T09:08:23;8.35;;;5.75;;
21501;SDS011;27639;48.674;9.242;2022-11-15T09:10:49;11.15;;;6.00;;
21501;SDS011;27639;48.674;9.242;2022-11-15T09:13:15;8.98;;;5.43;;
21501;SDS011;27639;48.674;9.242;2022-11-15T09:15:41;8.73;;;5.57;;
21501;SDS011;27639;48.674;9.242;2022-11-15T09:18:07;10.27;;;5.93;;
21501;SDS011;27639;48.674;9.242;2022-11-15T09:20:32;10.70;;;6.00;;
21501;SDS011;27639;48.674;9.242;2022-11-15T09:22:59;8.80;;;6.03;;
21501;SDS011;27639;48.674;9.242;2022-11-15T09:25:28;13.10;;;6.80;;
21501;SDS011;27639;48.674;9.242;2022-11-15T09:27:54;11.75;;;6.50;;
21501;SDS011;27639;48.674;9.242;2022-11-15T09:30:19;12.73;;;6.72;;
21501;SDS011;27639;48.674;9.242;2022-11-15T09:32:45;8.23;;;5.95;;
21501;SDS011;27639;48.674;9.242;2022-11-15T09:35:10;9.02;;;6.03;;
21501;SDS011;27639;48.674;9.242;2022-11-15T09:37:36;9.75;;;5.80;;
21501;SDS011;27639;48.674;9.242;2022-11-15T09:40:02;7.90;;;4.72;;
21501;SDS011;27639;48.674;9.242;2022-11-15T09:45:10;7.35;;;5.25;;
21501;SDS011;27639;48.674;9.242;2022-11-15T09:50:41;9.00;;;5.30;;
21501;SDS011;27639;48.674;9.242;2022-11-15T09:53:14;9.30;;;4.97;;
21501;SDS011;27639;48.674;9.242;2022-11-15T09:56:00;10.60;;;6.07;;
21501;SDS011;27639;48.674;9.242;2022-11-15T09:58:41;8.85;;;5.82;;
21501;SDS011;27639;48.674;9.242;2022-11-15T10:04:13;7.70;;;4.60;;
21501;SDS011;27639;48.674;9.242;2022-11-15T10:06:41;8.13;;;5.40;;
21501;SDS011;27639;48.674;9.242;2022-11-15T10:09:16;9.55;;;5.20;;
21501;SDS011;27639;48.674;9.242;2022-11-15T10:11:46;9.75;;;5.32;;
21501;SDS011;27639;48.674;9.242;2022-11-15T10:14:30;8.02;;;5.22;;
21501;SDS011;27639;48.674;9.242;2022-11-15T10:17:06;7.35;;;4.90;;
21501;SDS011;27639;48.674;9.242;2022-11-15T10:20:02;6.80;;;4.57;;
21501;SDS011;27639;48.674;9.242;2022-11-15T10:25:17;8.73;;;4.88;;
21501;SDS011;27639;48.674;9.242;2022-11-15T10:30:36;6.88;;;4.85;;
21501;SDS011;27639;48.674;9.242;2022-11-15T10:33:12;7.68;;;4.85;;
21501;SDS011;27639;48.674;9.242;2022-11-15T10:35:39;8.68;;;5.18;;
21501;SDS011;27639;48.674;9.242;2022-11-15T10:38:05;7.28;;;5.07;;
21501;SDS011;27639;48.674;9.242;2022-11-15T10:40:33;6.60;;;4.72;;
21501;SDS011;27639;48.674;9.242;2022-11-15T10:43:13;8.95;;;5.00;;
21501;SDS011;27639;48.674;9.242;2022-11-15T10:45:39;7.60;;;4.82;;
21501;SDS011;27639;48.674;9.242;2022-11-15T10:50:36;9.95;;;5.18;;
21501;SDS011;27639;48.674;9.242;2022-11-15T10:53:02;8.65;;;5.32;;
21501;SDS011;27639;48.674;9.242;2022-11-15T10:55:29;8.68;;;5.55;;
21501;SDS011;27639;48.674;9.242;2022-11-15T10:58:04;8.43;;;5.57;;
21501;SDS011;27639;48.674;9.242;2022-11-15T11:00:44;8.43;;;5.50;;
21501;SDS011;27639;48.674;9.242;2022-11-15T11:06:05;10.27;;;5.95;;
21501;SDS011;27639;48.674;9.242;2022-11-15T11:08:34;9.52;;;5.90;;
21501;SDS011;27639;48.674;9.242;2022-11-15T11:11:00;8.25;;;6.45;;
21501;SDS011;27639;48.674;9.242;2022-11-15T11:13:31;9.02;;;6.00;;
21501;SDS011;27639;48.674;9.242;2022-11-15T11:18:56;10.13;;;6.28;;
21501;SDS011;27639;48.674;9.242;2022-11-15T11:24:45;12.07;;;6.60;;
21501;SDS011;27639;48.674;9.242;2022-11-15T11:27:29;9.30;;;6.50;;
21501;SDS011;27639;48.674;9.242;2022-11-15T11:30:09;11.63;;;6.85;;
21501;SDS011;27639;48.674;9.242;2022-11-15T11:36:09;9.35;;;5.88;;
21501;SDS011;27639;48.674;9.242;2022-11-15T11:43:41;8.55;;;6.97;;
21501;SDS011;27639;48.674;9.242;2022-11-15T11:51:56;9.27;;;6.25;;
21501;SDS011;27639;48.674;9.242;2022-11-15T11:57:25;8.10;;;5.13;;
21501;SDS011;27639;48.674;9.242;2022-11-15T12:02:50;5.97;;;4.45;;
21501;SDS011;27639;48.674;9.242;2022-11-15T12:05:28;5.53;;;4.00;;
21501;SDS011;27639;48.674;9.242;2022-11-15T12:08:04;6.28;;;4.30;;
21501;SDS011;27639;48.674;9.242;2022-11-15T12:11:04;7.55;;;4.70;;
21501;SDS011;27639;48.674;9.242;2022-11-15T12:16:11;8.07;;;4.75;;
21501;SDS011;27639;48.674;9.242;2022-11-15T12:18:53;7.38;;;4.80;;
21501;SDS011;27639;48.674;9.242;2022-11-15T12:24:06;6.50;;;5.32;;
21501;SDS011;27639;48.674;9.242;2022-11-15T12:26:42;7.78;;;6.22;;
21501;SDS011;27639;48.674;9.242;2022-11-15T12:29:26;8.50;;;6.93;;
21501;SDS011;27639;48.674;9.242;2022-11-15T12:31:58;8.40;;;7.30;;
21501;SDS011;27639;48.674;9.242;2022-11-15T12:40:05;9.18;;;6.68;;
21501;SDS011;27639;48.674;9.242;2022-11-15T12:45:38;9.15;;;6.65;;
21501;SDS011;27639;48.674;9.242;2022-11-15T13:06:43;7.88;;;5.07;;
21501;SDS011;27639;48.674;9.242;2022-11-15T13:14:57;8.73;;;4.50;;
21501;SDS011;27639;48.674;9.242;2022-11-15T13:17:28;6.38;;;4.40;;
21501;SDS011;27639;48.674;9.242;2022-11-15T13:22:41;7.47;;;4.25;;
21501;SDS011;27639;48.674;9.242;2022-11-15T13:25:18;7.35;;;4.43;;
21501;SDS011;27639;48.674;9.242;2022-11-15T13:27:46;7.15;;;4.50;;
21501;SDS011;27639;48.674;9.242;2022-11-15T13:30:26;6.95;;;4.35;;
21501;SDS011;27639;48.674;9.242;2022-11-15T13:32:54;13.32;;;4.97;;
21501;SDS011;27639;48.674;9.242;2022-11-15T13:35:21;9.15;;;5.22;;
21501;SDS011;27639;48.674;9.242;2022-11-15T13:37:52;8.52;;;5.50;;
21501;SDS011;27639;48.674;9.242;2022-11-15T13:40:20;7.03;;;4.47;;
21501;SDS011;27639;48.674;9.242;2022-11-15T13:42:49;8.80;;;5.20;;
21501;SDS011;27639;48.674;9.242;2022-11-15T13:45:16;7.88;;;4.82;;
21501;SDS011;27639;48.674;9.242;2022-11-15T13:47:43;6.75;;;4.57;;
21501;SDS011;27639;48.674;9.242;2022-11-15T13:50:12;7.70;;;5.30;;
21501;SDS011;27639;48.674;9.242;2022-11-15T13:52:38;8.35;;;5.07;;
21501;SDS011;27639;48.674;9.242;2022-11-15T14:11:34;7.55;;;4.38;;
21501;SDS011;27639;48.674;9.242;2022-11-15T14:16:37;5.93;;;4.32;;
21501;SDS011;27639;48.674;9.242;2022-11-15T14:19:11;7.75;;;4.32;;
21501;SDS011;27639;48.674;9.242;2022-11-15T14:22:19;6.93;;;4.03;;
21501;SDS011;27639;48.674;9.242;2022-11-15T14:27:39;6.38;;;4.50;;
21501;SDS011;27639;48.674;9.242;2022-11-15T14:30:05;7.10;;;4.93;;
21501;SDS011;27639;48.674;9.242;2022-11-15T14:32:42;9.75;;;4.40;;
21501;SDS011;27639;48.674;9.242;2022-11-15T14:35:14;7.03;;;4.45;;
21501;SDS011;27639;48.674;9.242;2022-11-15T14:37:42;11.13;;;6.97;;
21501;SDS011;27639;48.674;9.242;2022-11-15T14:40:11;15.18;;;10.38;;
21501;SDS011;27639;48.674;9.242;2022-11-15T14:42:38;15.10;;;8.85;;
21501;SDS011;27639;48.674;9.242;2022-11-15T14:45:09;11.77;;;8.32;;
21501;SDS011;27639;48.674;9.242;2022-11-15T14:47:54;10.13;;;6.82;;
21501;SDS011;27639;48.674;9.242;2022-11-15T14:50:20;8.43;;;5.55;;
21501;SDS011;27639;48.674;9.242;2022-11-15T14:52:46;10.75;;;6.13;;
21501;SDS011;27639;48.674;9.242;2022-11-15T14:57:48;11.50;;;9.10;;
21501;SDS011;27639;48.674;9.242;2022-11-15T15:00:14;11.02;;;6.80;;
21501;SDS011;27639;48.674;9.242;2022-11-15T15:02:41;10.55;;;8.20;;
21501;SDS011;27639;48.674;9.242;2022-11-15T15:05:15;10.00;;;7.60;;
21501;SDS011;27639;48.674;9.242;2022-11-15T15:07:42;9.75;;;6.72;;
21501;SDS011;27639;48.674;9.242;2022-11-15T15:10:08;11.35;;;6.90;;
21501;SDS011;27639;48.674;9.242;2022-11-15T15:12:35;9.05;;;6.55;;
21501;SDS011;27639;48.674;9.242;2022-11-15T15:15:00;10.65;;;7.32;;
21501;SDS011;27639;48.674;9.242;2022-11-15T15:17:26;9.85;;;7.00;;
21501;SDS011;27639;48.674;9.242;2022-11-15T15:19:51;14.38;;;9.07;;
21501;SDS011;27639;48.674;9.242;2022-11-15T15:22:17;9.57;;;7.00;;
21501;SDS011;27639;48.674;9.242;2022-11-15T15:24:46;9.02;;;6.60;;
21501;SDS011;27639;48.674;9.242;2022-11-15T15:27:12;71.97;;;64.07;;
21501;SDS011;27639;48.674;9.242;2022-11-15T15:29:38;53.97;;;44.05;;
21501;SDS011;27639;48.674;9.242;2022-11-15T15:32:04;21.95;;;15.80;;
21501;SDS011;27639;48.674;9.242;2022-11-15T15:34:30;13.32;;;9.57;;
21501;SDS011;27639;48.674;9.242;2022-11-15T15:37:19;17.42;;;13.57;;
21501;SDS011;27639;48.674;9.242;2022-11-15T15:39:50;15.52;;;8.27;;
21501;SDS011;27639;48.674;9.242;2022-11-15T15:42:17;36.33;;;31.05;;
21501;SDS011;27639;48.674;9.242;2022-11-15T15:44:43;11.85;;;7.90;;
21501;SDS011;27639;48.674;9.242;2022-11-15T15:47:10;29.92;;;23.92;;
21501;SDS011;27639;48.674;9.242;2022-11-15T15:49:38;12.30;;;8.98;;
21501;SDS011;27639;48.674;9.242;2022-11-15T15:52:04;11.88;;;7.07;;
21501;SDS011;27639;48.674;9.242;2022-11-15T15:54:29;11.80;;;6.90;;
21501;SDS011;27639;48.674;9.242;2022-11-15T15:56:55;13.38;;;7.80;;
21501;SDS011;27639;48.674;9.242;2022-11-15T15:59:20;10.63;;;6.20;;
21501;SDS011;27639;48.674;9.242;2022-11-15T16:01:46;9.68;;;7.25;;
21501;SDS011;27639;48.674;9.242;2022-11-15T16:04:11;21.55;;;9.93;;
21501;SDS011;27639;48.674;9.242;2022-11-15T16:06:38;14.30;;;8.20;;
21501;SDS011;27639;48.674;9.242;2022-11-15T16:09:08;19.50;;;13.10;;
21501;SDS011;27639;48.674;9.242;2022-11-15T16:11:36;18.77;;;12.02;;
21501;SDS011;27639;48.674;9.242;2022-11-15T16:14:02;18.58;;;12.25;;
21501;SDS011;27639;48.674;9.242;2022-11-15T16:16:28;20.10;;;12.05;;
21501;SDS011;27639;48.674;9.242;2022-11-15T16:18:53;18.27;;;13.05;;
21501;SDS011;27639;48.674;9.242;2022-11-15T16:21:19;18.23;;;11.93;;
21501;SDS011;27639;48.674;9.242;2022-11-15T16:23:44;19.85;;;12.07;;
21501;SDS011;27639;48.674;9.242;2022-11-15T16:26:20;19.23;;;12.15;;
21501;SDS011;27639;48.674;9.242;2022-11-15T16:28:48;19.70;;;11.93;;
21501;SDS011;27639;48.674;9.242;2022-11-15T16:31:14;16.60;;;11.40;;
21501;SDS011;27639;48.674;9.242;2022-11-15T16:33:43;17.02;;;10.75;;
21501;SDS011;27639;48.674;9.242;2022-11-15T16:36:19;16.00;;;11.32;;
21501;SDS011;27639;48.674;9.242;2022-11-15T16:38:45;18.35;;;12.38;;
21501;SDS011;27639;48.674;9.242;2022-11-15T16:41:11;19.45;;;12.35;;
21501;SDS011;27639;48.674;9.242;2022-11-15T16:43:36;18.02;;;12.25;;
21501;SDS011;27639;48.674;9.242;2022-11-15T16:46:06;18.02;;;11.77;;
21501;SDS011;27639;48.674;9.242;2022-11-15T16:48:37;21.45;;;13.40;;
21501;SDS011;27639;48.674;9.242;2022-11-15T16:51:04;22.70;;;14.63;;
21501;SDS011;27639;48.674;9.242;2022-11-15T16:53:30;33.00;;;19.45;;
21501;SDS011;27639;48.674;9.242;2022-11-15T16:55:55;43.70;;;22.67;;
21501;SDS011;27639;48.674;9.242;2022-11-15T16:58:21;39.58;;;21.48;;
21501;SDS011;27639;48.674;9.242;2022-11-15T17:00:53;42.88;;;23.90;;
21501;SDS011;27639;48.674;9.242;2022-11-15T17:03:20;44.45;;;24.95;;
21501;SDS011;27639;48.674;9.242;2022-11-15T17:05:47;42.10;;;25.73;;
21501;SDS011;27639;48.674;9.242;2022-11-15T17:08:13;42.78;;;26.92;;
21501;SDS011;27639;48.674;9.242;2022-11-15T17:10:39;42.40;;;24.10;;
21501;SDS011;27639;48.674;9.242;2022-11-15T17:13:11;37.85;;;23.13;;
21501;SDS011;27639;48.674;9.242;2022-11-15T17:15:38;36.13;;;21.88;;
21501;SDS011;27639;48.674;9.242;2022-11-15T17:18:04;28.95;;;18.55;;